createdAt,value
2022-09-24T00:01:58.908Z,4.13
2022-09-24T00:05:02.180Z,4.43
2022-09-24T00:08:05.377Z,3.73
2022-09-24T00:11:12.432Z,4.10
2022-09-24T00:14:15.794Z,3.77
2022-09-24T00:17:18.988Z,3.70
2022-09-24T00:20:22.847Z,4.13
2022-09-24T00:23:26.104Z,4.20
2022-09-24T00:26:48.595Z,4.10
2022-09-24T00:29:51.861Z,4.23
2022-09-24T00:32:55.103Z,4.10
2022-09-24T00:36:01.000Z,4.50
2022-09-24T00:39:06.019Z,3.93
2022-09-24T00:42:11.324Z,4.67
2022-09-24T00:45:14.538Z,4.00
2022-09-24T00:48:17.910Z,3.80
2022-09-24T00:51:23.343Z,4.20
2022-09-24T00:54:30.017Z,4.40
2022-09-24T00:57:35.700Z,4.10
2022-09-24T01:00:40.478Z,4.37
2022-09-24T01:03:44.044Z,3.73
2022-09-24T01:06:47.323Z,4.30
2022-09-24T01:09:50.690Z,4.20
2022-09-24T01:13:05.009Z,3.97
2022-09-24T01:16:23.411Z,4.00
2022-09-24T01:20:04.162Z,3.77
2022-09-24T01:23:49.237Z,4.00
2022-09-24T01:27:15.704Z,3.87
2022-09-24T01:30:20.729Z,3.80
2022-09-24T01:33:26.599Z,4.13
2022-09-24T01:36:32.627Z,3.63
2022-09-24T01:39:39.265Z,4.03
2022-09-24T01:42:45.329Z,3.90
2022-09-24T01:45:50.527Z,4.10
2022-09-24T01:48:53.894Z,4.20
2022-09-24T01:52:03.292Z,3.97
2022-09-24T01:55:09.036Z,4.07
2022-09-24T01:58:19.445Z,4.03
2022-09-24T02:01:31.085Z,3.97
2022-09-24T02:04:41.001Z,3.90
2022-09-24T02:07:50.117Z,3.70
2022-09-24T02:10:58.989Z,3.80
2022-09-24T02:14:07.943Z,3.70
2022-09-24T02:17:13.680Z,4.30
2022-09-24T02:20:21.292Z,3.50
2022-09-24T02:23:27.384Z,3.60
2022-09-24T02:26:30.898Z,3.50
2022-09-24T02:29:34.230Z,3.73
2022-09-24T02:32:41.996Z,3.10
2022-09-24T02:35:44.369Z,3.30
2022-09-24T02:38:48.369Z,3.40
2022-09-24T02:41:53.827Z,4.20
2022-09-24T02:44:57.579Z,4.33
2022-09-24T02:48:03.039Z,3.60
2022-09-24T02:51:06.732Z,3.67
2022-09-24T02:54:10.617Z,3.70
2022-09-24T02:57:13.905Z,3.70
2022-09-24T03:00:21.171Z,3.63
2022-09-24T03:03:26.273Z,3.73
2022-09-24T03:06:30.503Z,4.10
2022-09-24T03:09:33.862Z,4.27
2022-09-24T03:12:37.145Z,5.07
2022-09-24T03:15:40.497Z,5.17
2022-09-24T03:18:45.439Z,4.60
2022-09-24T03:21:48.695Z,4.80
2022-09-24T03:24:52.084Z,4.83
2022-09-24T03:27:55.372Z,4.40
2022-09-24T03:31:01.706Z,4.20
2022-09-24T03:34:06.410Z,4.17
2022-09-24T03:37:09.687Z,4.00
2022-09-24T03:40:13.306Z,4.03
2022-09-24T03:43:16.538Z,4.20
2022-09-24T03:46:19.782Z,4.30
2022-09-24T03:49:25.947Z,3.97
2022-09-24T03:52:29.918Z,4.00
2022-09-24T03:55:33.189Z,4.50
2022-09-24T03:58:38.995Z,4.23
2022-09-24T04:01:42.375Z,4.37
2022-09-24T04:04:47.054Z,4.20
2022-09-24T04:07:50.231Z,4.20
2022-09-24T04:10:55.498Z,4.23
2022-09-24T04:13:58.828Z,4.10
2022-09-24T04:17:02.074Z,4.10
2022-09-24T04:20:08.016Z,3.77
2022-09-24T04:23:11.788Z,3.63
2022-09-24T04:26:15.292Z,4.17
2022-09-24T04:29:18.655Z,4.13
2022-09-24T04:32:22.599Z,3.80
2022-09-24T04:35:28.050Z,4.10
2022-09-24T04:38:31.238Z,3.63
2022-09-24T04:41:35.167Z,3.97
2022-09-24T04:44:38.405Z,3.67
2022-09-24T04:47:41.919Z,3.97
2022-09-24T04:50:46.724Z,3.60
2022-09-24T04:53:50.645Z,3.47
2022-09-24T04:56:53.889Z,3.30
2022-09-24T04:59:57.165Z,3.60
2022-09-24T05:03:03.728Z,3.80
2022-09-24T05:06:08.773Z,3.53
2022-09-24T05:09:12.877Z,3.57
2022-09-24T05:12:16.169Z,3.80
2022-09-24T05:15:20.386Z,4.20
2022-09-24T05:18:23.647Z,4.10
2022-09-24T05:21:28.310Z,4.00
2022-09-24T05:24:31.522Z,3.77
2022-09-24T05:27:35.863Z,3.80
2022-09-24T05:30:39.081Z,4.30
2022-09-24T05:33:42.385Z,4.63
2022-09-24T05:36:47.098Z,4.27
2022-09-24T05:39:50.351Z,4.77
2022-09-24T05:42:53.702Z,4.50
2022-09-24T05:45:58.757Z,4.53
2022-09-24T05:49:02.036Z,4.37
2022-09-24T05:52:07.523Z,4.27
2022-09-24T05:55:12.126Z,4.67
2022-09-24T05:58:15.675Z,4.60
2022-09-24T06:01:19.012Z,4.80
2022-09-24T06:04:22.253Z,4.83
2022-09-24T06:07:26.915Z,4.33
2022-09-24T06:10:30.208Z,4.90
2022-09-24T06:13:35.097Z,4.00
2022-09-24T06:16:38.463Z,4.40
2022-09-24T06:19:42.304Z,3.77
2022-09-24T06:22:46.946Z,3.50
2022-09-24T06:25:51.314Z,3.30
2022-09-24T06:28:54.677Z,2.63
2022-09-24T06:31:57.934Z,2.90
2022-09-24T06:35:01.203Z,2.80
2022-09-24T06:38:06.711Z,2.33
2022-09-24T06:41:10.595Z,2.87
2022-09-24T06:44:13.847Z,2.63
2022-09-24T06:47:17.104Z,2.70
2022-09-24T06:50:20.464Z,2.57
2022-09-24T06:53:25.537Z,2.50
2022-09-24T06:56:28.808Z,2.60
2022-09-24T06:59:32.078Z,2.43
2022-09-24T07:02:35.367Z,2.60
2022-09-24T07:05:43.373Z,2.43
2022-09-24T07:08:51.796Z,2.27
2022-09-24T07:11:57.086Z,2.63
2022-09-24T07:15:01.580Z,4.70
2022-09-24T07:18:04.988Z,3.30
2022-09-24T07:21:08.229Z,3.30
2022-09-24T07:24:12.860Z,3.23
2022-09-24T07:27:16.350Z,2.43
2022-09-24T07:30:19.767Z,2.53
2022-09-24T07:33:23.043Z,2.50
2022-09-24T07:36:26.390Z,3.00
2022-09-24T07:39:31.531Z,2.83
2022-09-24T07:42:34.781Z,2.50
2022-09-24T07:45:38.025Z,2.30
2022-09-24T07:48:41.291Z,2.43
2022-09-24T07:51:44.551Z,2.50
2022-09-24T07:54:49.689Z,2.57
2022-09-24T07:57:54.827Z,2.50
2022-09-24T08:00:59.734Z,2.47
2022-09-24T08:04:04.693Z,2.30
2022-09-24T08:07:08.019Z,2.53
2022-09-24T08:10:12.768Z,2.17
2022-09-24T08:13:16.334Z,2.53
2022-09-24T08:16:21.653Z,2.60
2022-09-24T08:19:24.985Z,2.17
2022-09-24T08:22:28.227Z,2.00
2022-09-24T08:25:33.005Z,2.00
2022-09-24T08:28:36.541Z,2.67
2022-09-24T08:31:42.211Z,2.57
2022-09-24T08:34:45.782Z,2.10
2022-09-24T08:37:48.974Z,3.00
2022-09-24T08:41:00.309Z,1.73
2022-09-24T08:44:06.953Z,2.20
2022-09-24T08:47:24.863Z,2.20
2022-09-24T08:50:31.252Z,1.63
2022-09-24T08:53:45.530Z,2.20
2022-09-24T08:56:52.103Z,1.90
2022-09-24T08:59:55.807Z,1.80
2022-09-24T09:03:05.199Z,1.63
2022-09-24T09:06:17.657Z,1.77
2022-09-24T09:09:24.712Z,1.92
2022-09-24T09:12:36.297Z,1.63
2022-09-24T09:15:44.247Z,2.05
2022-09-24T09:18:51.060Z,2.00
2022-09-24T09:21:57.204Z,1.83
2022-09-24T09:25:05.121Z,1.80
2022-09-24T09:28:15.209Z,1.70
2022-09-24T09:31:29.203Z,1.65
2022-09-24T09:34:47.916Z,2.00
2022-09-24T09:37:58.569Z,2.00
2022-09-24T09:41:08.292Z,1.55
2022-09-24T09:44:19.884Z,1.80
2022-09-24T09:47:33.431Z,2.00
2022-09-24T09:50:40.692Z,1.60
2022-09-24T09:53:55.598Z,1.80
2022-09-24T09:56:58.899Z,1.58
2022-09-24T10:00:05.191Z,1.48
2022-09-24T10:03:27.363Z,2.47
2022-09-24T10:06:32.902Z,1.95
2022-09-24T10:09:36.586Z,2.45
2022-09-24T10:12:39.803Z,1.85
2022-09-24T10:15:53.121Z,1.73
2022-09-24T10:18:56.477Z,1.42
2022-09-24T10:22:08.441Z,1.42
2022-09-24T10:25:20.775Z,1.60
2022-09-24T10:28:42.891Z,1.92
2022-09-24T10:31:49.048Z,1.80
2022-09-24T10:35:00.590Z,1.80
2022-09-24T10:38:16.066Z,2.63
2022-09-24T10:41:28.059Z,1.63
2022-09-24T10:44:36.796Z,1.80
2022-09-24T10:47:51.967Z,1.40
2022-09-24T10:51:04.220Z,1.60
2022-09-24T10:54:34.686Z,4.93
2022-09-24T10:57:50.891Z,1.75
2022-09-24T11:01:04.951Z,1.65
2022-09-24T11:04:24.172Z,1.70
2022-09-24T11:07:40.945Z,1.80
2022-09-24T11:11:19.647Z,1.75
2022-09-24T11:14:39.096Z,1.50
2022-09-24T11:17:53.331Z,1.90
2022-09-24T11:21:07.019Z,1.70
2022-09-24T11:24:35.436Z,2.25
2022-09-24T11:27:52.840Z,1.90
2022-09-24T11:31:04.939Z,2.28
2022-09-24T11:34:27.483Z,1.83
2022-09-24T11:37:47.323Z,1.70
2022-09-24T11:41:10.481Z,1.48
2022-09-24T11:44:41.149Z,1.80
2022-09-24T11:48:06.819Z,1.50
2022-09-24T11:51:21.736Z,1.60
2022-09-24T11:54:32.789Z,1.50
2022-09-24T11:57:40.838Z,1.67
2022-09-24T12:00:48.257Z,1.60
2022-09-24T12:03:58.469Z,1.73
2022-09-24T12:07:12.884Z,1.70
2022-09-24T12:10:34.825Z,2.00
2022-09-24T12:13:42.418Z,1.95
2022-09-24T12:16:50.336Z,1.65
2022-09-24T12:20:00.880Z,2.03
2022-09-24T12:23:08.099Z,1.73
2022-09-24T12:26:16.453Z,1.80
2022-09-24T12:29:53.126Z,1.60
2022-09-24T12:33:05.152Z,1.83
2022-09-24T12:36:14.396Z,1.40
2022-09-24T12:39:20.384Z,1.70
2022-09-24T12:42:29.174Z,1.92
2022-09-24T12:45:35.340Z,1.80
2022-09-24T12:48:41.213Z,2.10
2022-09-24T12:51:44.611Z,1.60
2022-09-24T12:54:55.249Z,1.80
2022-09-24T12:58:03.297Z,1.70
2022-09-24T13:01:14.530Z,1.48
2022-09-24T13:04:28.244Z,1.58
2022-09-24T13:07:35.054Z,1.80
2022-09-24T13:10:38.583Z,1.90
2022-09-24T13:13:44.863Z,1.52
2022-09-24T13:16:50.455Z,1.65
2022-09-24T13:19:59.200Z,1.70
2022-09-24T13:23:16.547Z,1.75
2022-09-24T13:26:35.040Z,1.90
2022-09-24T13:29:41.748Z,1.67
2022-09-24T13:32:59.062Z,1.70
2022-09-24T13:36:12.096Z,1.88
2022-09-24T13:39:19.345Z,1.58
2022-09-24T13:42:35.293Z,2.00
2022-09-24T13:45:42.803Z,1.70
2022-09-24T13:48:51.586Z,1.88
2022-09-24T13:52:13.149Z,1.70
2022-09-24T13:55:21.702Z,2.10
2022-09-24T13:58:29.105Z,1.98
2022-09-24T14:01:40.506Z,1.60
2022-09-24T14:04:44.174Z,2.10
2022-09-24T14:07:56.973Z,1.92
2022-09-24T14:11:09.837Z,2.13
2022-09-24T14:14:19.980Z,2.30
2022-09-24T14:17:24.771Z,2.15
2022-09-24T14:20:34.579Z,1.80
2022-09-24T14:23:42.309Z,2.00
2022-09-24T14:26:51.088Z,2.22
2022-09-24T14:29:58.177Z,1.77
2022-09-24T14:33:06.415Z,1.85
2022-09-24T14:36:12.939Z,1.90
2022-09-24T14:39:16.332Z,1.80
2022-09-24T14:42:25.801Z,2.47
2022-09-24T14:45:34.331Z,2.42
2022-09-24T14:48:39.877Z,2.10
2022-09-24T14:51:54.648Z,2.30
2022-09-24T14:55:15.414Z,1.92
2022-09-24T14:58:36.633Z,3.03
2022-09-24T15:01:40.125Z,2.60
2022-09-24T15:04:48.684Z,2.15
2022-09-24T15:07:52.315Z,2.40
2022-09-24T15:10:57.105Z,2.38
2022-09-24T15:14:02.539Z,2.00
2022-09-24T15:17:22.698Z,2.35
2022-09-24T15:20:27.321Z,2.53
2022-09-24T15:23:30.654Z,2.40
2022-09-24T15:26:36.922Z,3.00
2022-09-24T15:29:40.266Z,2.40
2022-09-24T15:32:43.764Z,2.70
2022-09-24T15:35:48.898Z,2.70
2022-09-24T15:38:53.262Z,2.50
2022-09-24T15:41:56.556Z,2.60
2022-09-24T15:45:00.249Z,3.17
2022-09-24T15:48:03.829Z,3.13
2022-09-24T15:51:15.408Z,2.20
2022-09-24T15:54:19.044Z,2.77
2022-09-24T15:57:22.938Z,2.90
2022-09-24T16:00:27.472Z,3.30
2022-09-24T16:03:32.612Z,3.07
2022-09-24T16:06:37.301Z,3.67
2022-09-24T16:09:40.987Z,2.90
2022-09-24T16:12:44.582Z,3.20
2022-09-24T16:15:47.919Z,2.70
2022-09-24T16:18:51.175Z,3.33
2022-09-24T16:21:55.846Z,3.17
2022-09-24T16:24:59.183Z,3.00
2022-09-24T16:28:02.857Z,3.97
2022-09-24T16:31:07.581Z,3.70
2022-09-24T16:34:11.939Z,3.37
2022-09-24T16:37:18.426Z,3.50
2022-09-24T16:40:21.805Z,4.63
2022-09-24T16:43:25.158Z,3.80
2022-09-24T16:46:28.656Z,4.30
2022-09-24T16:49:31.974Z,4.43
2022-09-24T16:52:36.533Z,4.83
2022-09-24T16:55:39.779Z,4.83
2022-09-24T16:58:44.349Z,8.40
2022-09-24T17:01:47.772Z,7.00
2022-09-24T17:04:53.594Z,7.73
2022-09-24T17:07:58.231Z,6.60
2022-09-24T17:11:00.778Z,7.67
2022-09-24T17:14:04.505Z,7.60
2022-09-24T17:17:08.460Z,6.77
2022-09-24T17:20:12.433Z,8.37
2022-09-24T17:23:17.088Z,8.33
2022-09-24T17:26:22.589Z,7.90
2022-09-24T17:29:31.125Z,7.30
2022-09-24T17:32:34.897Z,7.70
2022-09-24T17:35:38.143Z,10.33
2022-09-24T17:38:43.685Z,8.00
2022-09-24T17:41:46.978Z,6.00
2022-09-24T17:44:50.218Z,5.50
2022-09-24T17:48:01.137Z,6.30
2022-09-24T17:51:06.806Z,7.40
2022-09-24T17:54:14.565Z,7.67
2022-09-24T17:57:17.785Z,7.67
2022-09-24T18:00:21.064Z,8.00
2022-09-24T18:03:24.324Z,8.47
2022-09-24T18:06:32.947Z,7.33
2022-09-24T18:09:38.054Z,7.60
2022-09-24T18:12:41.330Z,8.13
2022-09-24T18:15:44.891Z,8.50
2022-09-24T18:18:50.333Z,8.17
2022-09-24T18:21:53.567Z,8.37
2022-09-24T18:25:01.796Z,9.00
2022-09-24T18:28:05.039Z,10.07
2022-09-24T18:31:09.562Z,11.00
2022-09-24T18:34:15.205Z,10.40
2022-09-24T18:37:18.579Z,9.60
2022-09-24T18:40:23.359Z,7.47
2022-09-24T18:43:26.958Z,7.23
2022-09-24T18:46:32.785Z,6.20
2022-09-24T18:49:37.388Z,6.87
2022-09-24T18:52:40.750Z,6.03
2022-09-24T18:55:45.451Z,6.50
2022-09-24T18:58:48.826Z,6.27
2022-09-24T19:01:52.407Z,6.47
2022-09-24T19:04:55.775Z,6.10
2022-09-24T19:07:59.249Z,6.93
2022-09-24T19:11:09.381Z,7.20
2022-09-24T19:14:15.162Z,6.83
2022-09-24T19:17:19.017Z,7.60
2022-09-24T19:20:23.642Z,7.10
2022-09-24T19:23:26.934Z,7.90
2022-09-24T19:26:33.606Z,9.17
2022-09-24T19:29:36.952Z,8.97
2022-09-24T19:32:40.274Z,9.00
2022-09-24T19:35:45.902Z,8.20
2022-09-24T19:38:49.838Z,7.67
2022-09-24T19:41:54.534Z,7.63
2022-09-24T19:44:58.992Z,7.70
2022-09-24T19:48:02.538Z,6.07
2022-09-24T19:51:09.191Z,6.17
2022-09-24T19:54:12.845Z,6.03
2022-09-24T19:57:18.236Z,5.70
2022-09-24T20:00:23.738Z,6.60
2022-09-24T20:03:27.014Z,6.00
2022-09-24T20:06:31.387Z,6.63
2022-09-24T20:09:34.742Z,6.20
2022-09-24T20:12:41.755Z,5.93
2022-09-24T20:15:45.063Z,5.20
2022-09-24T20:18:48.514Z,5.77
2022-09-24T20:21:53.221Z,5.57
2022-09-24T20:24:56.473Z,8.40
2022-09-24T20:28:00.156Z,6.07
2022-09-24T20:31:10.372Z,6.30
2022-09-24T20:34:13.652Z,5.23
2022-09-24T20:37:17.004Z,5.07
2022-09-24T20:40:20.374Z,4.83
2022-09-24T20:43:25.337Z,4.83
2022-09-24T20:46:29.493Z,4.77
2022-09-24T20:49:33.414Z,5.30
2022-09-24T20:52:36.689Z,4.93
2022-09-24T20:55:40.349Z,5.27
2022-09-24T20:58:45.969Z,5.23
2022-09-24T21:01:49.615Z,4.57
2022-09-24T21:04:53.169Z,4.63
2022-09-24T21:07:56.365Z,4.97
2022-09-24T21:11:02.477Z,5.80
2022-09-24T21:14:10.449Z,5.63
2022-09-24T21:17:13.773Z,4.73
2022-09-24T21:20:17.071Z,5.23
2022-09-24T21:23:21.668Z,5.20
2022-09-24T21:26:27.522Z,5.90
2022-09-24T21:29:32.806Z,6.80
2022-09-24T21:32:38.863Z,6.87
2022-09-24T21:35:42.099Z,6.33
2022-09-24T21:38:46.099Z,6.07
2022-09-24T21:41:55.037Z,5.73
2022-09-24T21:45:01.199Z,6.10
2022-09-24T21:48:04.502Z,5.70
2022-09-24T21:51:10.101Z,7.57
2022-09-24T21:54:16.384Z,6.07
2022-09-24T21:57:19.580Z,4.83
2022-09-24T22:00:24.428Z,4.97
2022-09-24T22:03:27.903Z,5.30
2022-09-24T22:06:32.856Z,4.30
2022-09-24T22:09:36.196Z,3.73
2022-09-24T22:12:39.803Z,4.30
2022-09-24T22:15:46.162Z,4.47
2022-09-24T22:18:49.365Z,4.00
2022-09-24T22:21:53.014Z,4.20
2022-09-24T22:24:56.285Z,4.63
2022-09-24T22:27:59.584Z,4.10
2022-09-24T22:31:08.709Z,3.80
2022-09-24T22:34:29.769Z,4.03
2022-09-24T22:37:32.957Z,4.50
2022-09-24T22:40:36.602Z,4.40
2022-09-24T22:43:40.603Z,4.33
2022-09-24T22:46:45.301Z,4.93
2022-09-24T22:49:48.578Z,6.33
2022-09-24T22:52:52.152Z,4.90
2022-09-24T22:56:04.696Z,3.97
2022-09-24T22:59:08.259Z,3.30
2022-09-24T23:02:13.460Z,3.30
2022-09-24T23:05:17.096Z,4.00
2022-09-24T23:08:20.405Z,4.20
2022-09-24T23:11:25.151Z,4.27
2022-09-24T23:14:28.513Z,4.00
2022-09-24T23:17:33.145Z,3.87
2022-09-24T23:20:36.461Z,3.43
2022-09-24T23:23:40.579Z,3.90
2022-09-24T23:26:44.321Z,3.80
2022-09-24T23:29:47.680Z,4.67
2022-09-24T23:32:52.345Z,4.13
2022-09-24T23:35:55.806Z,4.37
2022-09-24T23:38:59.820Z,4.20
2022-09-24T23:42:03.171Z,4.23
2022-09-24T23:45:07.293Z,4.73
2022-09-24T23:48:12.116Z,4.90
2022-09-24T23:51:15.423Z,4.83
2022-09-24T23:54:18.725Z,4.97
2022-09-24T23:57:21.971Z,6.00
